Tasman Mariner — VRWW8 — position and weather

sailwx.info

Track history (hours):
 
Tides and Currents Weather Stations Pressure Air Temp Water Temp Dewpoint Dewpoint Depression Visibility Wind Speed Wind Dir Waves Ship Positions

Tasman Mariner

Last reported at 2015-Mar-03 00:00 UTC. Time now 2015-Mar-05 08:11 UTC.
Position S 18°12' E 151°24'.

Length 184 m; beam 27 m; draft 10 m.

Type: Cargo ship. MMSI: 477860000.

Wind from 120 at 16 knots

Waves 1.5 meters (5 feet), 5 second period

Barometer 1012.6 mb
Air temperature 29.5 ° C
Visibility: greater than 10.8 NM
Dewpoint 23.8 ° C
Water temperature 30.0 ° C

Date/timePositionNaut miles runAvg speedWind from/ knotsBaromVisibWave heightAir tempDewpointWater temp
2015-Mar-03 00:00S 18°12' E 151°24'31913.3 120 / 161012.610.8 1.529.523.830.0
2015-Mar-02 00:00S 23°06' E 153°36'11813.3 140 / 101013.710.8 0.529.523.030.0
2015-Mar-01 15:08S 25°04' E 153°37'813.7
2015-Mar-01 14:31S 25°12' E 153°35'1414.2
2015-Mar-01 13:33S 25°26' E 153°32'1514.6
2015-Mar-01 12:32S 25°40' E 153°29'1414.2
2015-Mar-01 11:32S 25°54' E 153°25'1414.4
2015-Mar-01 10:33S 26°08' E 153°22'1414.3
2015-Mar-01 09:33S 26°22' E 153°19'1414.2
2015-Mar-01 08:33S 26°36' E 153°16'1110.5
2015-Mar-01 07:33S 26°46' E 153°11'1211.7
2015-Mar-01 06:33S 26°57' E 153°13'1313.2
2015-Mar-01 05:34S 27°08' E 153°21'1313.0
2015-Mar-01 04:33S 27°19' E 153°12'3 3.0
2015-Mar-01 03:31S 27°22' E 153°11'0 0.0
2015-Mar-01 02:31S 27°22' E 153°11'0 0.0
2015-Mar-01 01:31S 27°22' E 153°11'0 0.0
2015-Mar-01 00:31S 27°22' E 153°11'0 0.0
2015-Feb-28 23:31S 27°22' E 153°11'0 0.0
2015-Feb-28 22:31S 27°22' E 153°11'0 0.0
2015-Feb-28 21:31S 27°22' E 153°11'0 0.0
2015-Feb-28 20:31S 27°22' E 153°11'0 0.0
2015-Feb-28 19:31S 27°22' E 153°11'0 0.0
2015-Feb-28 18:31S 27°22' E 153°11'0 0.0
2015-Feb-28 17:31S 27°22' E 153°11'0 0.0
2015-Feb-28 16:31S 27°22' E 153°11'0 0.0
2015-Feb-28 15:31S 27°22' E 153°11'0 0.0
2015-Feb-28 14:31S 27°22' E 153°11'0 0.0
2015-Feb-28 13:31S 27°22' E 153°11'0 0.0
2015-Feb-28 12:31S 27°22' E 153°11'0 0.0
2015-Feb-28 11:31S 27°22' E 153°11'0 0.0
2015-Feb-28 10:31S 27°22' E 153°11'0 0.0
2015-Feb-28 09:28S 27°22' E 153°11'0 0.0
2015-Feb-28 08:31S 27°22' E 153°11'0 0.0
2015-Feb-28 07:31S 27°22' E 153°11'0 0.0
2015-Feb-28 06:31S 27°22' E 153°11'0 0.0
2015-Feb-28 05:31S 27°22' E 153°11'0 0.0
2015-Feb-28 04:31S 27°22' E 153°11'0 0.0
2015-Feb-28 03:31S 27°22' E 153°11'0 0.0
2015-Feb-28 02:31S 27°22' E 153°11'0 0.0
2015-Feb-28 01:31S 27°22' E 153°11'0 0.0
2015-Feb-28 00:34S 27°22' E 153°11'3 3.5
2015-Feb-27 23:34S 27°19' E 153°13'4 4.4
2015-Feb-27 22:34S 27°16' E 153°16'1010.3
2015-Feb-27 21:33S 27°06' E 153°19'1414.1
2015-Feb-27 20:33S 26°54' E 153°11'1010.4
2015-Feb-27 19:33S 26°44' E 153°13'1010.0
2015-Feb-27 18:33S 26°49' E 153°22'4 3.9
2015-Feb-27 17:33S 26°51' E 153°26'2 2.3
2015-Feb-27 16:33S 26°50' E 153°24'8 7.8
2015-Feb-27 15:33S 26°53' E 153°32'10 9.9
2015-Feb-27 14:33S 27°01' E 153°38'1111.3
2015-Feb-27 13:33S 27°12' E 153°39'1110.8
2015-Feb-27 12:33S 27°23' E 153°39'1110.7
2015-Feb-27 11:33S 27°34' E 153°40'1110.8
2015-Feb-27 10:33S 27°45' E 153°41'1111.1
2015-Feb-27 09:33S 27°56' E 153°41'1110.9
2015-Feb-27 08:33S 28°07' E 153°42'9010.5
2015-Feb-27 00:00S 29°36' E 153°30'17410.5 360 / 101012.210.8 0.525.521.024.0
2015-Feb-26 07:31S 32°24' E 152°39'1110.7
2015-Feb-26 06:27S 32°34' E 152°32'1011.3
2015-Feb-26 05:33S 32°41' E 152°24'1111.5
2015-Feb-26 04:33S 32°49' E 152°14'1212.3
2015-Feb-26 03:33S 32°52' E 152°00'1111.1
2015-Feb-26 02:33S 32°55' E 151°47'2 2.0
2015-Feb-26 01:32S 32°54' E 151°46'0 0.0
2015-Feb-26 00:32S 32°54' E 151°46'0 0.0
2015-Feb-25 23:32S 32°54' E 151°46'0 0.0
2015-Feb-25 22:32S 32°54' E 151°46'0 0.0
2015-Feb-25 21:32S 32°54' E 151°46'0 0.0
2015-Feb-25 20:32S 32°54' E 151°46'0 0.0
2015-Feb-25 19:32S 32°54' E 151°46'0 0.0
2015-Feb-25 18:32S 32°54' E 151°46'0 0.0
2015-Feb-25 17:32S 32°54' E 151°46'0 0.0
2015-Feb-25 16:32S 32°54' E 151°46'0 0.0
2015-Feb-25 15:32S 32°54' E 151°46'0 0.0
2015-Feb-25 14:32S 32°54' E 151°46'0 0.0
2015-Feb-25 13:32S 32°54' E 151°46'0 0.0
2015-Feb-25 12:29S 32°54' E 151°46'0 0.0
2015-Feb-25 11:32S 32°54' E 151°46'0 0.0
2015-Feb-25 10:32S 32°54' E 151°46'0 0.0
2015-Feb-25 09:32S 32°54' E 151°46'0 0.0
2015-Feb-25 08:29S 32°54' E 151°46'0 0.0
2015-Feb-25 07:32S 32°54' E 151°46'0 0.0
2015-Feb-25 06:32S 32°54' E 151°46'0 0.0
2015-Feb-25 05:32S 32°54' E 151°46'0 0.0
2015-Feb-25 04:32S 32°54' E 151°46'0 0.0
2015-Feb-25 03:32S 32°54' E 151°46'0 0.0
2015-Feb-25 02:32S 32°54' E 151°46'0 0.0
2015-Feb-25 01:32S 32°54' E 151°46'0 0.0
2015-Feb-25 00:32S 32°54' E 151°46'0 0.0
2015-Feb-24 23:32S 32°54' E 151°46'0 0.2
2015-Feb-24 22:33S 32°54' E 151°46'6 5.6
2015-Feb-24 21:33S 32°58' E 151°51'274 5.5
2015-Feb-22 19:31S 37°18' E 150°10'1010.8
2015-Feb-22 18:33S 37°29' E 150°08'1010.0
2015-Feb-22 17:32S 37°37' E 150°01'1010.2
2015-Feb-22 16:34S 37°45' E 149°53'1111.0
2015-Feb-22 15:33S 37°53' E 149°43'1211.4
2015-Feb-22 14:29S 38°00' E 149°31'1011.1
2015-Feb-22 13:34S 38°06' E 149°21'1111.1
2015-Feb-22 12:34S 38°13' E 149°10'1111.3
2015-Feb-22 11:34S 38°21' E 148°59'1111.4
2015-Feb-22 10:34S 38°27' E 148°47'1111.4
2015-Feb-22 09:34S 38°34' E 148°35'1111.3
2015-Feb-22 08:34S 38°41' E 148°24'1212.2
2015-Feb-22 07:34S 38°48' E 148°11'1312.9
2015-Feb-22 06:34S 38°52' E 147°55'1212.3
2015-Feb-22 05:34S 38°57' E 147°41'1211.8
2015-Feb-22 04:34S 39°01' E 147°26'1111.2
2015-Feb-22 03:34S 39°05' E 147°13'1111.0
2015-Feb-22 02:34S 39°09' E 146°60'1110.9
2015-Feb-22 01:34S 39°13' E 146°47'1111.3
2015-Feb-22 00:34S 39°16' E 146°33'1211.6
2015-Feb-21 23:34S 39°17' E 146°18'1111.3
2015-Feb-21 22:34S 39°11' E 146°05'1212.3
2015-Feb-21 21:33S 39°04' E 145°52'1313.3
2015-Feb-21 20:33S 38°57' E 145°37'1212.3
2015-Feb-21 19:33S 38°50' E 145°24'1212.4
2015-Feb-21 18:33S 38°43' E 145°11'1212.3
2015-Feb-21 17:33S 38°36' E 144°58'1212.2
2015-Feb-21 16:33S 38°28' E 144°46'1210.2
2015-Feb-21 15:20S 38°17' E 144°39'  
Track history (hours):
 
Tides and Currents Weather Stations Pressure Air Temp Water Temp Dewpoint Dewpoint Depression Visibility Wind Speed Wind Dir Waves Ship Positions

Tasman Mariner

Last reported at 2015-Mar-03 00:00 UTC. Time now 2015-Mar-05 08:11 UTC.
Position S 18°12' E 151°24'.

Length 184 m; beam 27 m; draft 10 m.

Type: Cargo ship. MMSI: 477860000.

Wind from 120 at 16 knots

Waves 1.5 meters (5 feet), 5 second period

Barometer 1012.6 mb
Air temperature 29.5 ° C
Visibility: greater than 10.8 NM
Dewpoint 23.8 ° C
Water temperature 30.0 ° C

Date/timePositionNaut miles runAvg speedWind from/ knotsBaromVisibWave heightAir tempDewpointWater temp
2015-Mar-03 00:00S 18°12' E 151°24'31913.3 120 / 161012.610.8 1.529.523.830.0
2015-Mar-02 00:00S 23°06' E 153°36'11813.3 140 / 101013.710.8 0.529.523.030.0
2015-Mar-01 15:08S 25°04' E 153°37'813.7
2015-Mar-01 14:31S 25°12' E 153°35'1414.2
2015-Mar-01 13:33S 25°26' E 153°32'1514.6
2015-Mar-01 12:32S 25°40' E 153°29'1414.2
2015-Mar-01 11:32S 25°54' E 153°25'1414.4
2015-Mar-01 10:33S 26°08' E 153°22'1414.3
2015-Mar-01 09:33S 26°22' E 153°19'1414.2
2015-Mar-01 08:33S 26°36' E 153°16'1110.5
2015-Mar-01 07:33S 26°46' E 153°11'1211.7
2015-Mar-01 06:33S 26°57' E 153°13'1313.2
2015-Mar-01 05:34S 27°08' E 153°21'1313.0
2015-Mar-01 04:33S 27°19' E 153°12'3 3.0
2015-Mar-01 03:31S 27°22' E 153°11'0 0.0
2015-Mar-01 02:31S 27°22' E 153°11'0 0.0
2015-Mar-01 01:31S 27°22' E 153°11'0 0.0
2015-Mar-01 00:31S 27°22' E 153°11'0 0.0
2015-Feb-28 23:31S 27°22' E 153°11'0 0.0
2015-Feb-28 22:31S 27°22' E 153°11'0 0.0
2015-Feb-28 21:31S 27°22' E 153°11'0 0.0
2015-Feb-28 20:31S 27°22' E 153°11'0 0.0
2015-Feb-28 19:31S 27°22' E 153°11'0 0.0
2015-Feb-28 18:31S 27°22' E 153°11'0 0.0
2015-Feb-28 17:31S 27°22' E 153°11'0 0.0
2015-Feb-28 16:31S 27°22' E 153°11'0 0.0
2015-Feb-28 15:31S 27°22' E 153°11'0 0.0
2015-Feb-28 14:31S 27°22' E 153°11'0 0.0
2015-Feb-28 13:31S 27°22' E 153°11'0 0.0
2015-Feb-28 12:31S 27°22' E 153°11'0 0.0
2015-Feb-28 11:31S 27°22' E 153°11'0 0.0
2015-Feb-28 10:31S 27°22' E 153°11'0 0.0
2015-Feb-28 09:28S 27°22' E 153°11'0 0.0
2015-Feb-28 08:31S 27°22' E 153°11'0 0.0
2015-Feb-28 07:31S 27°22' E 153°11'0 0.0
2015-Feb-28 06:31S 27°22' E 153°11'0 0.0
2015-Feb-28 05:31S 27°22' E 153°11'0 0.0
2015-Feb-28 04:31S 27°22' E 153°11'0 0.0
2015-Feb-28 03:31S 27°22' E 153°11'0 0.0
2015-Feb-28 02:31S 27°22' E 153°11'0 0.0
2015-Feb-28 01:31S 27°22' E 153°11'0 0.0
2015-Feb-28 00:34S 27°22' E 153°11'3 3.5
2015-Feb-27 23:34S 27°19' E 153°13'4 4.4
2015-Feb-27 22:34S 27°16' E 153°16'1010.3
2015-Feb-27 21:33S 27°06' E 153°19'1414.1
2015-Feb-27 20:33S 26°54' E 153°11'1010.4
2015-Feb-27 19:33S 26°44' E 153°13'1010.0
2015-Feb-27 18:33S 26°49' E 153°22'4 3.9
2015-Feb-27 17:33S 26°51' E 153°26'2 2.3
2015-Feb-27 16:33S 26°50' E 153°24'8 7.8
2015-Feb-27 15:33S 26°53' E 153°32'10 9.9
2015-Feb-27 14:33S 27°01' E 153°38'1111.3
2015-Feb-27 13:33S 27°12' E 153°39'1110.8
2015-Feb-27 12:33S 27°23' E 153°39'1110.7
2015-Feb-27 11:33S 27°34' E 153°40'1110.8
2015-Feb-27 10:33S 27°45' E 153°41'1111.1
2015-Feb-27 09:33S 27°56' E 153°41'1110.9
2015-Feb-27 08:33S 28°07' E 153°42'9010.5
2015-Feb-27 00:00S 29°36' E 153°30'17410.5 360 / 101012.210.8 0.525.521.024.0
2015-Feb-26 07:31S 32°24' E 152°39'1110.7
2015-Feb-26 06:27S 32°34' E 152°32'1011.3
2015-Feb-26 05:33S 32°41' E 152°24'1111.5
2015-Feb-26 04:33S 32°49' E 152°14'1212.3
2015-Feb-26 03:33S 32°52' E 152°00'1111.1
2015-Feb-26 02:33S 32°55' E 151°47'2 2.0
2015-Feb-26 01:32S 32°54' E 151°46'0 0.0
2015-Feb-26 00:32S 32°54' E 151°46'0 0.0
2015-Feb-25 23:32S 32°54' E 151°46'0 0.0
2015-Feb-25 22:32S 32°54' E 151°46'0 0.0
2015-Feb-25 21:32S 32°54' E 151°46'0 0.0
2015-Feb-25 20:32S 32°54' E 151°46'0 0.0
2015-Feb-25 19:32S 32°54' E 151°46'0 0.0
2015-Feb-25 18:32S 32°54' E 151°46'0 0.0
2015-Feb-25 17:32S 32°54' E 151°46'0 0.0
2015-Feb-25 16:32S 32°54' E 151°46'0 0.0
2015-Feb-25 15:32S 32°54' E 151°46'0 0.0
2015-Feb-25 14:32S 32°54' E 151°46'0 0.0
2015-Feb-25 13:32S 32°54' E 151°46'0 0.0
2015-Feb-25 12:29S 32°54' E 151°46'0 0.0
2015-Feb-25 11:32S 32°54' E 151°46'0 0.0
2015-Feb-25 10:32S 32°54' E 151°46'0 0.0
2015-Feb-25 09:32S 32°54' E 151°46'0 0.0
2015-Feb-25 08:29S 32°54' E 151°46'0 0.0
2015-Feb-25 07:32S 32°54' E 151°46'0 0.0
2015-Feb-25 06:32S 32°54' E 151°46'0 0.0
2015-Feb-25 05:32S 32°54' E 151°46'0 0.0
2015-Feb-25 04:32S 32°54' E 151°46'0 0.0
2015-Feb-25 03:32S 32°54' E 151°46'0 0.0
2015-Feb-25 02:32S 32°54' E 151°46'0 0.0
2015-Feb-25 01:32S 32°54' E 151°46'0 0.0
2015-Feb-25 00:32S 32°54' E 151°46'0 0.0
2015-Feb-24 23:32S 32°54' E 151°46'0 0.2
2015-Feb-24 22:33S 32°54' E 151°46'6 5.6
2015-Feb-24 21:33S 32°58' E 151°51'274 5.5
2015-Feb-22 19:31S 37°18' E 150°10'1010.8
2015-Feb-22 18:33S 37°29' E 150°08'1010.0
2015-Feb-22 17:32S 37°37' E 150°01'1010.2
2015-Feb-22 16:34S 37°45' E 149°53'1111.0
2015-Feb-22 15:33S 37°53' E 149°43'1211.4
2015-Feb-22 14:29S 38°00' E 149°31'1011.1
2015-Feb-22 13:34S 38°06' E 149°21'1111.1
2015-Feb-22 12:34S 38°13' E 149°10'1111.3
2015-Feb-22 11:34S 38°21' E 148°59'1111.4
2015-Feb-22 10:34S 38°27' E 148°47'1111.4
2015-Feb-22 09:34S 38°34' E 148°35'1111.3
2015-Feb-22 08:34S 38°41' E 148°24'1212.2
2015-Feb-22 07:34S 38°48' E 148°11'1312.9
2015-Feb-22 06:34S 38°52' E 147°55'1212.3
2015-Feb-22 05:34S 38°57' E 147°41'1211.8
2015-Feb-22 04:34S 39°01' E 147°26'1111.2
2015-Feb-22 03:34S 39°05' E 147°13'1111.0
2015-Feb-22 02:34S 39°09' E 146°60'1110.9
2015-Feb-22 01:34S 39°13' E 146°47'1111.3
2015-Feb-22 00:34S 39°16' E 146°33'1211.6
2015-Feb-21 23:34S 39°17' E 146°18'1111.3
2015-Feb-21 22:34S 39°11' E 146°05'1212.3
2015-Feb-21 21:33S 39°04' E 145°52'1313.3
2015-Feb-21 20:33S 38°57' E 145°37'1212.3
2015-Feb-21 19:33S 38°50' E 145°24'1212.4
2015-Feb-21 18:33S 38°43' E 145°11'1212.3
2015-Feb-21 17:33S 38°36' E 144°58'1212.2
2015-Feb-21 16:33S 38°28' E 144°46'1210.2
2015-Feb-21 15:20S 38°17' E 144°39'  

Dump ship's entire track history